Time;durP1;ratioP1;P1;durP2;ratioP2;P2;SDS_P1;SDS_P2;PMS_P1;PMS_P2;Temp;Humidity;BMP_temperature;BMP_pressure;BME280_temperature;BME280_humidity;BME280_pressure;Samples;Min_cycle;Max_cycle;Signal;HPM_P1;HPM_P2
2022/07/17 00:02:23;;;;;;;0.90;0.70;;;;;;;16.86;57.01;102825.44;4975098;28;98646;-35
2022/07/17 00:04:48;;;;;;;2.05;1.00;;;;;;;16.81;57.11;102821.19;4974735;28;99048;-35
2022/07/17 00:07:14;;;;;;;2.17;0.88;;;;;;;16.83;56.39;102824.69;4975324;28;101520;-35
2022/07/17 00:09:39;;;;;;;2.28;1.02;;;;;;;16.74;57.74;102818.75;4975797;28;96512;-35
2022/07/17 00:12:04;;;;;;;0.82;0.70;;;;;;;16.70;56.97;102822.63;4975822;28;96820;-35
2022/07/17 00:14:30;;;;;;;1.92;0.70;;;;;;;16.70;57.24;102824.47;4974217;28;98045;-35
2022/07/17 00:16:57;;;;;;;1.20;0.85;;;;;;;16.70;57.71;102835.44;4975029;28;97835;-35
2022/07/17 00:19:23;;;;;;;1.25;0.80;;;;;;;16.65;57.92;102823.84;4975316;28;96656;-35
2022/07/17 00:21:49;;;;;;;3.30;1.10;;;;;;;16.59;57.09;102818.72;4975516;28;96830;-35
2022/07/17 00:24:19;;;;;;;2.58;0.90;;;;;;;16.64;58.14;102823.00;4975242;28;97845;-35
2022/07/17 00:26:46;;;;;;;1.10;0.80;;;;;;;16.57;58.09;102821.56;4975158;28;99349;-35
2022/07/17 00:29:11;;;;;;;3.30;1.27;;;;;;;16.55;57.88;102838.03;4973542;28;96693;-36
2022/07/17 00:31:36;;;;;;;1.25;0.82;;;;;;;16.51;57.39;102830.09;4975429;28;96730;-35
2022/07/17 00:34:03;;;;;;;1.63;0.82;;;;;;;16.45;58.09;102828.59;4974461;28;113144;-35
2022/07/17 00:36:28;;;;;;;2.30;0.93;;;;;;;16.43;58.54;102821.44;4974247;28;99728;-35
2022/07/17 00:38:54;;;;;;;3.65;0.98;;;;;;;16.38;58.04;102824.41;4975365;28;96625;-35
2022/07/17 00:41:19;;;;;;;2.67;0.80;;;;;;;16.33;59.69;102821.94;4975459;28;96855;-35
2022/07/17 00:43:45;;;;;;;2.38;0.95;;;;;;;16.29;58.69;102819.44;4974282;28;121257;-35
2022/07/17 00:46:11;;;;;;;2.15;0.82;;;;;;;16.27;59.63;102818.63;4973629;28;100787;-35
2022/07/17 00:48:36;;;;;;;1.55;0.80;;;;;;;16.24;59.71;102814.22;4975402;28;96620;-35
2022/07/17 00:51:01;;;;;;;1.48;1.00;;;;;;;16.18;59.53;102809.06;4974557;28;102804;-35
2022/07/17 00:53:28;;;;;;;2.13;0.98;;;;;;;16.19;59.54;102813.59;4974177;28;99565;-35
2022/07/17 00:55:55;;;;;;;3.45;1.67;;;;;;;16.14;59.80;102808.38;4973398;28;100773;-35
2022/07/17 00:58:23;;;;;;;2.33;1.20;;;;;;;16.10;60.47;102794.94;4974936;28;96677;-36
2022/07/17 01:00:51;;;;;;;1.65;0.90;;;;;;;16.10;59.68;102794.94;4973449;28;96953;-35
2022/07/17 01:03:17;;;;;;;3.20;0.70;;;;;;;16.09;60.62;102804.13;4973339;28;99074;-35
2022/07/17 01:05:43;;;;;;;3.42;0.73;;;;;;;16.04;59.83;102782.50;4973130;28;100625;-35
2022/07/17 01:08:08;;;;;;;1.98;0.95;;;;;;;15.99;60.57;102781.84;4974975;28;96497;-35
2022/07/17 01:10:34;;;;;;;1.90;0.95;;;;;;;16.02;60.24;102781.69;4975305;28;96817;-35
2022/07/17 01:13:00;;;;;;;0.82;0.47;;;;;;;15.98;59.89;102768.28;4974556;28;98125;-35
2022/07/17 01:15:25;;;;;;;1.10;0.85;;;;;;;16.02;61.61;102770.75;4973030;28;100716;-35
2022/07/17 01:17:50;;;;;;;2.55;0.90;;;;;;;15.99;60.29;102770.91;4974298;28;96572;-35
2022/07/17 01:20:17;;;;;;;2.00;1.15;;;;;;;16.01;60.27;102781.75;4974606;28;96832;-35
2022/07/17 01:22:47;;;;;;;4.35;1.00;;;;;;;16.03;59.81;102783.44;4974455;28;97409;-35
2022/07/17 01:25:14;;;;;;;5.82;1.13;;;;;;;16.00;59.95;102780.88;4973072;28;99876;-35
2022/07/17 01:27:40;;;;;;;0.98;0.63;;;;;;;16.05;60.92;102794.31;4976365;28;96832;-35
2022/07/17 01:30:06;;;;;;;2.05;0.80;;;;;;;15.97;61.17;102785.63;4977986;28;96858;-35
2022/07/17 01:32:38;;;;;;;1.10;0.70;;;;;;;16.01;60.75;102793.56;4976340;28;102373;-35
2022/07/17 01:35:04;;;;;;;1.35;0.90;;;;;;;15.89;61.23;102778.72;4978046;28;97413;-35
2022/07/17 01:37:30;;;;;;;2.58;0.70;;;;;;;15.89;60.72;102784.19;4975884;28;96734;-35
2022/07/17 01:39:56;;;;;;;5.65;0.93;;;;;;;15.89;61.07;102796.97;4978319;28;96787;-35
2022/07/17 01:42:22;;;;;;;1.67;0.70;;;;;;;15.86;60.83;102787.06;4975466;28;101143;-35
2022/07/17 01:44:48;;;;;;;1.75;0.88;;;;;;;15.82;60.89;102781.84;4976048;28;102920;-35
2022/07/17 01:47:14;;;;;;;2.42;0.90;;;;;;;15.85;60.98;102781.69;4976484;28;96744;-35
2022/07/17 01:49:46;;;;;;;2.70;0.98;;;;;;;15.86;60.78;102783.47;4976426;28;96886;-35
2022/07/17 01:52:12;;;;;;;4.00;0.70;;;;;;;15.85;60.60;102778.94;4977317;28;99757;-35
2022/07/17 01:54:38;;;;;;;3.75;0.63;;;;;;;15.78;61.01;102767.47;4975966;28;100700;-35
2022/07/17 01:57:03;;;;;;;5.75;1.15;;;;;;;15.76;60.43;102765.81;4978047;28;96536;-35
2022/07/17 01:59:28;;;;;;;2.63;0.77;;;;;;;15.77;61.21;102768.44;4978137;28;96773;-35
2022/07/17 02:01:54;;;;;;;3.15;1.00;;;;;;;15.77;61.15;102770.28;4976953;28;101406;-35
2022/07/17 02:04:19;;;;;;;3.20;0.80;;;;;;;15.69;60.68;102767.94;4977331;28;100128;-35
2022/07/17 02:06:44;;;;;;;2.63;0.90;;;;;;;15.68;61.38;102775.25;4976913;28;96485;-35
2022/07/17 02:09:09;;;;;;;1.45;0.63;;;;;;;15.70;60.60;102781.53;4977421;28;96866;-35
2022/07/17 02:11:35;;;;;;;1.90;0.68;;;;;;;15.61;61.11;102771.06;4977306;28;97937;-35
2022/07/17 02:14:03;;;;;;;2.10;0.77;;;;;;;15.64;61.85;102784.56;4976605;28;122656;-35
2022/07/17 02:16:28;;;;;;;0.95;0.55;;;;;;;15.63;61.26;102795.56;4977097;28;96512;-35
2022/07/17 02:18:54;;;;;;;2.67;0.80;;;;;;;15.57;61.78;102791.31;4977184;28;96847;-35
2022/07/17 02:21:19;;;;;;;1.77;0.70;;;;;;;15.51;61.36;102781.56;4976581;28;106709;-35
2022/07/17 02:23:44;;;;;;;3.03;0.90;;;;;;;15.50;62.41;102774.34;4976955;28;114789;-35
2022/07/17 02:26:10;;;;;;;1.00;0.50;;;;;;;15.49;62.22;102779.88;4976967;28;96600;-35
2022/07/17 02:28:38;;;;;;;1.85;0.70;;;;;;;15.42;61.82;102773.88;4977387;28;96779;-35
2022/07/17 02:31:03;;;;;;;0.80;0.32;;;;;;;15.47;61.91;102779.09;4976641;28;98044;-35
2022/07/17 02:33:29;;;;;;;1.67;0.93;;;;;;;15.42;62.65;102770.22;4977012;28;96498;-35
2022/07/17 02:35:54;;;;;;;4.18;0.85;;;;;;;15.38;62.18;102772.25;4976044;28;104355;-35
2022/07/17 02:38:19;;;;;;;1.40;0.60;;;;;;;15.48;61.88;102786.31;4974800;28;96821;-35
2022/07/17 02:40:45;;;;;;;0.85;0.68;;;;;;;15.43;62.18;102791.13;4976549;28;97964;-35
2022/07/17 02:43:10;;;;;;;0.90;0.52;;;;;;;15.37;62.35;102788.69;4976499;28;99316;-35
2022/07/17 02:45:36;;;;;;;0.95;0.57;;;;;;;15.41;62.29;102812.16;4977116;28;96664;-35
2022/07/17 02:48:01;;;;;;;1.13;0.60;;;;;;;15.40;62.21;102808.56;4977228;28;96873;-35
2022/07/17 02:50:26;;;;;;;2.10;0.73;;;;;;;15.31;62.29;102799.94;4976583;28;98161;-35
2022/07/17 02:52:52;;;;;;;1.38;0.68;;;;;;;15.31;62.75;102811.75;4976571;28;97789;-35
2022/07/17 02:55:18;;;;;;;2.53;0.82;;;;;;;15.31;63.02;102819.94;4976029;28;96988;-35
2022/07/17 02:57:46;;;;;;;2.15;0.68;;;;;;;15.28;64.20;102822.84;4975200;28;97105;-35
2022/07/17 03:00:15;;;;;;;1.73;0.82;;;;;;;15.16;63.42;102807.94;4976373;28;98042;-35
2022/07/17 03:02:53;;;;;;;1.55;0.65;;;;;;;15.22;63.64;102820.41;4976194;28;99420;-35
2022/07/17 03:05:18;;;;;;;1.83;0.60;;;;;;;15.20;63.90;102814.13;4976527;28;96764;-35
2022/07/17 03:07:47;;;;;;;1.25;0.65;;;;;;;15.17;63.58;102826.06;4976465;28;96772;-35
2022/07/17 03:10:13;;;;;;;2.03;0.57;;;;;;;15.16;63.02;102817.94;4976383;28;97581;-35
2022/07/17 03:12:39;;;;;;;1.48;0.80;;;;;;;15.07;62.91;102813.84;4975212;28;100746;-35
2022/07/17 03:15:05;;;;;;;2.55;0.70;;;;;;;15.04;63.40;102808.53;4975097;28;96550;-35
2022/07/17 03:17:31;;;;;;;2.17;0.55;;;;;;;15.06;63.46;102806.59;4976415;28;96878;-35
2022/07/17 03:19:57;;;;;;;0.60;0.57;;;;;;;15.00;63.11;102802.34;4975715;28;97194;-35
2022/07/17 03:22:22;;;;;;;1.92;0.82;;;;;;;15.04;63.44;102827.63;4975744;28;97210;-35
2022/07/17 03:24:47;;;;;;;2.17;1.05;;;;;;;14.99;63.63;102806.03;4976307;28;96701;-35
2022/07/17 03:27:13;;;;;;;0.73;0.50;;;;;;;14.97;64.49;102824.34;4976331;28;96811;-35
2022/07/17 03:29:38;;;;;;;1.42;0.85;;;;;;;14.89;63.83;102801.09;4976030;28;97525;-35
2022/07/17 03:32:05;;;;;;;2.67;0.75;;;;;;;14.93;64.79;102816.38;4975749;28;110604;-35
2022/07/17 03:34:30;;;;;;;1.35;0.73;;;;;;;14.94;63.76;102818.13;4974518;28;96681;-35
2022/07/17 03:36:56;;;;;;;2.15;0.73;;;;;;;14.94;64.43;102818.13;4975426;28;96967;-35
2022/07/17 03:39:21;;;;;;;1.60;0.77;;;;;;;14.89;63.72;102829.25;4975905;28;98268;-35
2022/07/17 03:41:46;;;;;;;1.52;0.70;;;;;;;14.90;63.88;102822.88;4975810;28;97281;-35
2022/07/17 03:44:13;;;;;;;1.33;0.90;;;;;;;14.82;64.26;102808.69;4975495;28;96804;-35
2022/07/17 03:46:38;;;;;;;2.80;0.77;;;;;;;14.85;64.84;102819.47;4974530;28;96872;-35
2022/07/17 03:49:04;;;;;;;2.35;0.95;;;;;;;14.84;65.20;102831.31;4975694;28;97588;-35
2022/07/17 03:51:29;;;;;;;2.45;0.82;;;;;;;14.81;65.33;102817.84;4975265;28;99092;-35
2022/07/17 03:53:54;;;;;;;3.03;0.95;;;;;;;14.83;64.38;102821.38;4975841;28;96751;-35
2022/07/17 03:56:20;;;;;;;1.50;0.75;;;;;;;14.82;64.04;102817.75;4975858;28;96819;-35
2022/07/17 03:58:45;;;;;;;1.52;1.00;;;;;;;14.78;63.91;102807.97;4975565;28;98001;-35
2022/07/17 04:01:10;;;;;;;1.75;0.90;;;;;;;14.81;64.64;102813.25;4975700;28;97818;-35
2022/07/17 04:03:36;;;;;;;1.63;0.90;;;;;;;14.76;64.58;102804.41;4975917;28;96681;-35
2022/07/17 04:06:01;;;;;;;1.88;0.80;;;;;;;14.77;64.33;102816.22;4976040;28;96867;-35
2022/07/17 04:08:27;;;;;;;2.38;0.90;;;;;;;14.79;65.02;102817.03;4973477;28;101074;-35
2022/07/17 04:10:52;;;;;;;2.15;0.82;;;;;;;14.85;65.52;102824.94;4975457;28;97973;-35
2022/07/17 04:13:18;;;;;;;1.65;0.82;;;;;;;14.80;63.89;102816.97;4975578;28;96686;-35
2022/07/17 04:15:49;;;;;;;3.25;1.13;;;;;;;14.86;64.57;102823.97;4975671;28;96862;-35
2022/07/17 04:18:22;;;;;;;1.25;0.93;;;;;;;14.85;65.19;102835.84;4975364;28;98088;-35
2022/07/17 04:20:51;;;;;;;5.18;0.77;;;;;;;14.84;64.57;102825.88;4973687;28;100553;-35
2022/07/17 04:23:16;;;;;;;1.80;0.85;;;;;;;14.85;64.57;102830.38;4973955;28;96721;-35
2022/07/17 04:25:42;;;;;;;2.40;0.70;;;;;;;14.90;64.30;102833.78;4976237;28;96819;-35
2022/07/17 04:28:08;;;;;;;2.58;0.52;;;;;;;14.91;64.64;102834.66;4975036;28;97543;-35
2022/07/17 04:30:34;;;;;;;2.08;0.93;;;;;;;14.92;64.35;102839.13;4973490;28;100801;-35
2022/07/17 04:33:00;;;;;;;2.88;0.70;;;;;;;14.91;63.85;102835.53;4974691;28;96583;-35
2022/07/17 04:35:26;;;;;;;3.20;0.68;;;;;;;14.88;63.99;102832.09;4975238;28;96942;-35
2022/07/17 04:37:51;;;;;;;3.30;1.27;;;;;;;14.94;64.26;102850.88;4974764;28;97483;-34
2022/07/17 04:40:16;;;;;;;1.23;0.73;;;;;;;14.93;63.94;102838.19;4975107;28;97793;-35
2022/07/17 04:42:42;;;;;;;3.33;0.65;;;;;;;14.92;63.96;102830.94;4975371;28;96508;-35
2022/07/17 04:45:08;;;;;;;1.40;0.68;;;;;;;14.91;63.62;102826.47;4975295;28;96818;-35
2022/07/17 04:47:34;;;;;;;1.33;0.73;;;;;;;14.98;63.39;102820.63;4974743;28;99444;-35
2022/07/17 04:49:59;;;;;;;3.33;1.20;;;;;;;15.02;63.47;102826.84;4975241;28;97884;-35
2022/07/17 04:52:25;;;;;;;3.47;0.90;;;;;;;14.98;63.63;102822.47;4975234;28;96638;-35
2022/07/17 04:54:50;;;;;;;1.58;0.57;;;;;;;15.01;63.36;102814.13;4975203;28;96925;-35
2022/07/17 04:57:18;;;;;;;8.88;0.90;;;;;;;15.02;64.48;102815.94;4974084;28;104379;-35
2022/07/17 04:59:44;;;;;;;2.55;0.75;;;;;;;15.03;63.27;102818.56;4974528;28;100180;-35
2022/07/17 05:02:09;;;;;;;4.18;1.00;;;;;;;15.14;63.05;102820.78;4972365;28;96629;-35
2022/07/17 05:04:34;;;;;;;1.60;0.70;;;;;;;15.10;63.05;102812.81;4975037;28;96775;-35
2022/07/17 05:07:00;;;;;;;2.22;0.80;;;;;;;15.13;63.38;102812.66;4974900;28;101523;-35
2022/07/17 05:09:25;;;;;;;1.70;0.95;;;;;;;15.16;63.53;102813.41;4974599;28;97085;-35
2022/07/17 05:11:51;;;;;;;2.70;0.93;;;;;;;15.19;62.38;102817.81;4974799;28;96665;-35
2022/07/17 05:14:16;;;;;;;3.03;0.70;;;;;;;15.26;62.42;102822.03;4975060;28;96845;-35
2022/07/17 05:16:41;;;;;;;1.45;0.75;;;;;;;15.25;63.19;102810.22;4974570;28;98058;-35
2022/07/17 05:19:07;;;;;;;3.75;0.88;;;;;;;15.31;62.91;102828.13;4974704;28;98098;-35
2022/07/17 05:21:32;;;;;;;1.33;1.00;;;;;;;15.28;62.56;102815.53;4974246;28;96662;-35
2022/07/17 05:23:57;;;;;;;1.75;0.85;;;;;;;15.24;62.53;102805.69;4974620;28;96866;-35
2022/07/17 05:26:23;;;;;;;0.80;0.50;;;;;;;15.39;62.49;102814.97;4974441;28;97913;-34
2022/07/17 05:28:49;;;;;;;1.73;0.57;;;;;;;15.47;62.20;102826.41;4972840;28;100788;-34
2022/07/17 05:31:14;;;;;;;4.15;0.75;;;;;;;15.50;62.58;102822.63;4974851;28;96644;-35
2022/07/17 05:33:39;;;;;;;2.25;0.50;;;;;;;15.59;61.90;102827.63;4973127;28;97010;-35
2022/07/17 05:36:05;;;;;;;1.33;0.55;;;;;;;15.67;63.00;102833.56;4973403;28;109854;-35
2022/07/17 05:38:30;;;;;;;3.33;0.82;;;;;;;15.71;61.62;102829.75;4974825;28;97810;-35
2022/07/17 05:40:55;;;;;;;0.80;0.45;;;;;;;15.76;61.81;102824.06;4974612;28;96698;-35
2022/07/17 05:43:21;;;;;;;3.40;0.65;;;;;;;15.80;61.84;102827.50;4974452;28;96855;-34
2022/07/17 05:45:46;;;;;;;1.77;0.77;;;;;;;15.86;61.20;102825.34;4973716;28;97496;-35
2022/07/17 05:48:11;;;;;;;2.70;0.93;;;;;;;15.97;61.48;102827.53;4971640;28;123991;-35
2022/07/17 05:50:37;;;;;;;1.85;0.70;;;;;;;16.03;61.09;102832.66;4974625;28;96603;-34
2022/07/17 05:53:02;;;;;;;4.05;1.40;;;;;;;16.14;61.07;102835.72;4974596;28;96813;-35
2022/07/17 05:55:28;;;;;;;3.60;0.70;;;;;;;16.14;60.84;102824.78;4974147;28;97408;-34
2022/07/17 05:57:53;;;;;;;4.55;1.10;;;;;;;16.27;60.95;102830.47;4973962;28;99280;-35
2022/07/17 06:00:19;;;;;;;1.48;0.85;;;;;;;16.27;60.75;102824.97;4972869;28;96845;-35
2022/07/17 06:02:45;;;;;;;2.75;0.60;;;;;;;16.32;60.36;102825.63;4973055;28;98364;-35
2022/07/17 06:05:10;;;;;;;1.30;0.68;;;;;;;16.46;60.33;102837.66;4973773;28;103995;-35
2022/07/17 06:07:36;;;;;;;1.55;0.85;;;;;;;16.50;60.34;102840.16;4973944;28;98005;-35
2022/07/17 06:10:03;;;;;;;2.75;0.85;;;;;;;16.55;59.92;102829.84;4972244;28;96712;-35
2022/07/17 06:12:28;;;;;;;3.13;0.90;;;;;;;16.61;59.74;102838.66;4972793;28;96944;-35
2022/07/17 06:14:53;;;;;;;1.80;0.80;;;;;;;16.70;59.47;102840.91;4977311;28;97743;-35
2022/07/17 06:17:19;;;;;;;2.00;0.77;;;;;;;16.79;59.58;102845.03;4976999;28;97241;-35
2022/07/17 06:19:44;;;;;;;0.82;0.50;;;;;;;16.84;59.54;102843.78;4977319;28;96545;-35
2022/07/17 06:22:09;;;;;;;2.65;0.75;;;;;;;16.93;58.94;102842.41;4977027;28;97002;-35
2022/07/17 06:24:35;;;;;;;2.30;0.80;;;;;;;16.98;58.72;102840.28;4977115;28;98037;-35
2022/07/17 06:27:00;;;;;;;1.92;0.60;;;;;;;17.07;59.40;102853.44;4977517;28;97732;-35
2022/07/17 06:29:25;;;;;;;3.70;0.70;;;;;;;17.09;58.84;102848.78;4977008;28;96636;-35
2022/07/17 06:31:51;;;;;;;0.82;0.57;;;;;;;17.23;58.80;102853.44;4977183;28;96876;-35
2022/07/17 06:34:16;;;;;;;1.52;0.57;;;;;;;17.35;59.00;102868.28;4976540;28;97338;-35
2022/07/17 06:36:41;;;;;;;4.72;0.82;;;;;;;17.41;57.59;102857.84;4976122;28;97426;-35
2022/07/17 06:39:07;;;;;;;5.10;0.57;;;;;;;17.60;58.07;102875.97;4977115;28;96561;-35
2022/07/17 06:41:32;;;;;;;4.93;0.50;;;;;;;17.62;57.26;102865.78;4977017;28;96751;-34
2022/07/17 06:43:57;;;;;;;1.60;0.60;;;;;;;17.69;57.39;102872.69;4975932;28;115602;-34
2022/07/17 06:46:23;;;;;;;2.60;0.50;;;;;;;17.84;57.39;102881.88;4975955;28;124112;-35
2022/07/17 06:48:51;;;;;;;6.78;1.00;;;;;;;17.94;56.74;102879.47;4976981;28;96533;-34
2022/07/17 06:51:16;;;;;;;3.00;0.68;;;;;;;18.01;56.39;102879.00;4977070;28;96916;-34
2022/07/17 06:53:42;;;;;;;1.50;0.52;;;;;;;18.21;56.31;102887.84;4976595;28;98107;-35
2022/07/17 06:56:07;;;;;;;8.52;0.68;;;;;;;18.29;56.24;102884.66;4976034;28;112584;-34
2022/07/17 06:58:33;;;;;;;0.88;0.50;;;;;;;18.38;55.45;102889.59;4976139;28;96731;-34
2022/07/17 07:00:58;;;;;;;2.92;0.70;;;;;;;18.39;55.88;102870.25;4975970;28;96875;-34
2022/07/17 07:03:23;;;;;;;0.68;0.40;;;;;;;18.60;55.53;102883.63;4975756;28;99922;-34
2022/07/17 07:05:50;;;;;;;1.13;0.70;;;;;;;18.60;55.38;102878.16;4975966;28;107842;-34
2022/07/17 07:08:16;;;;;;;0.22;0.20;;;;;;;18.62;55.04;102892.66;4975308;28;96702;-34
2022/07/17 07:10:50;;;;;;;3.20;1.00;;;;;;;18.64;54.43;102887.97;4976517;28;96790;-34
2022/07/17 07:13:15;;;;;;;0.52;0.38;;;;;;;18.75;55.14;102884.53;4976221;28;98063;-34
2022/07/17 07:15:41;;;;;;;1.20;0.55;;;;;;;18.85;55.08;102896.69;4975360;28;121572;-34
2022/07/17 07:18:06;;;;;;;1.10;0.50;;;;;;;18.92;54.11;102889.84;4976295;28;96671;-34
2022/07/17 07:20:31;;;;;;;0.52;0.40;;;;;;;19.13;54.46;102894.94;4976532;28;96782;-34
2022/07/17 07:22:56;;;;;;;1.17;0.55;;;;;;;19.19;53.36;102889.94;4975174;28;108296;-34
2022/07/17 07:25:22;;;;;;;1.38;0.50;;;;;;;19.31;53.81;102885.50;4975725;28;97794;-34
2022/07/17 07:27:47;;;;;;;2.88;0.93;;;;;;;19.42;53.45;102882.88;4976460;28;96422;-34
2022/07/17 07:30:12;;;;;;;1.58;0.45;;;;;;;19.56;53.27;102873.72;4975249;28;111394;-34
2022/07/17 07:32:39;;;;;;;1.63;0.63;;;;;;;19.72;53.08;102882.72;4975780;28;99264;-34
2022/07/17 07:35:06;;;;;;;2.97;0.88;;;;;;;19.94;52.92;102886.75;4975440;28;98701;-34
2022/07/17 07:37:31;;;;;;;2.67;0.80;;;;;;;20.01;52.53;102879.84;4974178;28;96834;-34
2022/07/17 07:39:57;;;;;;;2.25;0.60;;;;;;;20.11;51.98;102871.84;4976632;28;96802;-34
2022/07/17 07:42:22;;;;;;;1.35;0.52;;;;;;;20.22;52.07;102879.34;4975531;28;100444;-34
2022/07/17 07:44:47;;;;;;;2.35;0.75;;;;;;;20.26;51.88;102873.53;4974320;28;128011;-35
2022/07/17 07:47:13;;;;;;;3.35;0.75;;;;;;;20.43;52.00;102882.47;4975499;28;96600;-35
2022/07/17 07:49:38;;;;;;;1.52;0.70;;;;;;;20.58;51.57;102873.13;4974880;28;113838;-34
2022/07/17 07:52:03;;;;;;;1.73;0.60;;;;;;;20.65;51.50;102865.31;4975985;28;97364;-34
2022/07/17 07:54:29;;;;;;;2.58;0.70;;;;;;;20.84;51.20;102876.75;4975610;28;97836;-34
2022/07/17 07:56:54;;;;;;;1.80;0.50;;;;;;;20.89;50.75;102860.78;4975899;28;96548;-34
2022/07/17 07:59:20;;;;;;;1.45;0.60;;;;;;;21.06;50.38;102870.53;4975659;28;96740;-35
2022/07/17 08:01:46;;;;;;;2.25;0.63;;;;;;;21.06;50.00;102859.53;4973617;28;100950;-34
2022/07/17 08:04:11;;;;;;;2.60;0.55;;;;;;;21.22;50.74;102870.28;4976200;28;97401;-34
2022/07/17 08:06:36;;;;;;;3.30;0.80;;;;;;;21.31;49.98;102864.09;4975501;28;96449;-34
2022/07/17 08:09:02;;;;;;;1.33;0.50;;;;;;;21.30;50.03;102873.34;4975817;28;96843;-34
2022/07/17 08:11:27;;;;;;;1.30;0.63;;;;;;;21.30;49.91;102866.97;4974717;28;99540;-34
2022/07/17 08:13:52;;;;;;;1.88;0.60;;;;;;;21.36;49.31;102877.53;4975307;28;97747;-35
2022/07/17 08:16:18;;;;;;;0.77;0.35;;;;;;;21.39;49.00;102869.03;4975637;28;96626;-35
2022/07/17 08:18:43;;;;;;;2.28;0.52;;;;;;;21.35;49.32;102871.13;4975794;28;96813;-35
2022/07/17 08:21:08;;;;;;;3.40;0.52;;;;;;;21.52;48.80;102861.59;4975170;28;97879;-35
2022/07/17 08:23:34;;;;;;;2.95;0.68;;;;;;;21.71;49.24;102868.47;4974552;28;112513;-34
2022/07/17 08:25:59;;;;;;;1.90;0.50;;;;;;;21.85;48.94;102862.78;4975557;28;96509;-34
2022/07/17 08:28:25;;;;;;;1.77;0.50;;;;;;;22.02;48.21;102865.13;4975765;28;96706;-35
2022/07/17 08:30:50;;;;;;;1.85;0.50;;;;;;;22.16;47.94;102865.91;4975102;28;97964;-35
2022/07/17 08:33:17;;;;;;;1.63;0.60;;;;;;;22.27;48.74;102858.56;4974766;28;99119;-35
2022/07/17 08:35:43;;;;;;;2.83;0.77;;;;;;;22.36;46.76;102851.44;4972266;28;96853;-35
2022/07/17 08:38:08;;;;;;;1.48;0.70;;;;;;;22.43;46.67;102852.69;4974964;28;96942;-35
2022/07/17 08:40:36;;;;;;;3.53;0.80;;;;;;;22.52;45.38;102852.94;4974864;28;97985;-35
2022/07/17 08:43:04;;;;;;;2.08;0.52;;;;;;;22.48;46.11;102850.44;4973385;28;99197;-35
2022/07/17 08:45:29;;;;;;;2.28;0.52;;;;;;;22.67;46.21;102857.25;4973814;28;96634;-35
2022/07/17 08:47:55;;;;;;;3.80;1.05;;;;;;;22.81;46.59;102856.09;4975321;28;96953;-35
2022/07/17 08:50:33;;;;;;;3.78;0.77;;;;;;;22.90;45.99;102858.97;4973540;28;101147;-35
2022/07/17 08:52:59;;;;;;;2.25;0.60;;;;;;;23.01;45.73;102847.09;4973788;28;100855;-34
2022/07/17 08:55:25;;;;;;;5.18;0.98;;;;;;;23.10;46.22;102860.16;4973872;28;96605;-35
2022/07/17 08:57:50;;;;;;;2.55;0.88;;;;;;;23.04;45.47;102857.00;4974877;28;96863;-35
2022/07/17 09:00:20;;;;;;;3.33;0.80;;;;;;;23.11;45.54;102848.06;4974116;28;99274;-35
2022/07/17 09:02:54;;;;;;;3.15;0.65;;;;;;;23.20;45.08;102851.09;4974329;28;97842;-35
2022/07/17 09:05:41;;;;;;;4.22;0.85;;;;;;;23.31;45.03;102851.97;4974978;28;96744;-35
2022/07/17 09:08:15;;;;;;;3.05;0.70;;;;;;;23.46;45.13;102846.13;4974800;28;96828;-35
2022/07/17 09:10:43;;;;;;;1.52;0.65;;;;;;;23.60;44.50;102848.59;4973154;28;101148;-35
2022/07/17 09:13:23;;;;;;;1.33;0.70;;;;;;;23.52;44.11;102838.16;4973466;28;100863;-35
2022/07/17 09:15:51;;;;;;;1.48;0.65;;;;;;;23.63;44.33;102841.94;4975001;28;96795;-35
2022/07/17 09:18:18;;;;;;;5.82;0.80;;;;;;;23.84;43.71;102847.53;4973659;28;97035;-35
2022/07/17 09:20:49;;;;;;;0.60;0.50;;;;;;;23.90;42.72;102845.09;4972939;28;100982;-35
2022/07/17 09:23:16;;;;;;;1.40;0.63;;;;;;;24.04;43.34;102843.91;4972918;28;101040;-35
2022/07/17 09:25:44;;;;;;;1.35;0.50;;;;;;;24.19;41.91;102846.34;4972837;28;96528;-35
2022/07/17 09:28:13;;;;;;;3.97;1.30;;;;;;;24.14;43.03;102846.75;4973364;28;96842;-35
2022/07/17 09:30:42;;;;;;;1.38;0.80;;;;;;;24.27;43.13;102852.09;4974177;28;99949;-34
2022/07/17 09:33:12;;;;;;;1.15;0.55;;;;;;;24.32;42.81;102855.34;4972661;28;100769;-35
2022/07/17 09:35:46;;;;;;;2.15;0.82;;;;;;;24.43;41.85;102840.50;4972923;28;96707;-35
2022/07/17 09:38:24;;;;;;;3.45;0.88;;;;;;;24.62;41.82;102839.78;4973133;28;96932;-35
2022/07/17 09:43:42;;;;;;;1.50;0.80;;;;;;;24.73;40.98;102840.56;4974691;28;97033;-35
2022/07/17 09:46:08;;;;;;;2.13;0.82;;;;;;;24.85;41.51;102846.88;4973194;28;96698;-35
2022/07/17 09:48:39;;;;;;;2.65;0.93;;;;;;;24.91;41.39;102846.34;4976234;28;96927;-34
2022/07/17 09:51:04;;;;;;;2.67;0.60;;;;;;;24.84;39.26;102839.59;4977590;28;97380;-35
2022/07/17 09:53:31;;;;;;;2.55;0.90;;;;;;;24.79;40.23;102836.38;4977757;28;97765;-35
2022/07/17 09:55:59;;;;;;;4.40;0.80;;;;;;;24.93;41.30;102838.75;4976172;28;96711;-35
2022/07/17 09:58:26;;;;;;;3.97;0.70;;;;;;;25.02;40.92;102843.44;4976226;28;96775;-35
2022/07/17 10:00:51;;;;;;;2.47;0.55;;;;;;;25.10;41.44;102836.31;4975839;28;101144;-35
2022/07/17 10:03:26;;;;;;;2.22;0.90;;;;;;;25.19;41.37;102828.09;4977214;28;97280;-35
2022/07/17 10:05:51;;;;;;;3.80;1.00;;;;;;;25.39;41.11;102842.84;4977576;28;96633;-35
2022/07/17 10:08:17;;;;;;;3.97;1.00;;;;;;;25.47;39.98;102847.69;4977947;28;96794;-35
2022/07/17 10:10:43;;;;;;;3.55;1.30;;;;;;;25.43;40.20;102843.44;4975726;28;101039;-35
2022/07/17 10:13:08;;;;;;;1.92;0.70;;;;;;;25.50;39.81;102849.28;4977257;28;97784;-35
2022/07/17 10:15:34;;;;;;;1.27;0.50;;;;;;;25.59;40.75;102851.22;4977087;28;96763;-35
2022/07/17 10:18:05;;;;;;;1.73;0.80;;;;;;;25.65;40.14;102850.63;4975961;28;96889;-35
2022/07/17 10:20:31;;;;;;;1.70;0.70;;;;;;;25.67;38.76;102856.94;4975641;28;101027;-34
2022/07/17 10:22:56;;;;;;;2.30;0.80;;;;;;;25.60;39.71;102839.97;4976936;28;97316;-35
2022/07/17 10:25:21;;;;;;;0.85;0.55;;;;;;;25.62;39.52;102840.72;4977156;28;96621;-35
2022/07/17 10:27:55;;;;;;;1.50;0.70;;;;;;;25.72;39.12;102859.25;4977150;28;96887;-35
2022/07/17 10:30:29;;;;;;;2.00;0.93;;;;;;;25.60;38.86;102844.66;4975576;28;101001;-34
2022/07/17 10:33:00;;;;;;;4.25;0.88;;;;;;;25.75;39.62;102853.41;4975813;28;100894;-35
2022/07/17 10:35:27;;;;;;;4.72;1.17;;;;;;;25.86;39.77;102842.19;4975567;28;96708;-35
2022/07/17 10:37:53;;;;;;;2.20;0.77;;;;;;;26.13;37.96;102858.13;4974986;28;96946;-35
2022/07/17 10:40:29;;;;;;;1.45;0.77;;;;;;;26.16;38.61;102852.25;4976371;28;97916;-34
2022/07/17 10:42:59;;;;;;;1.38;0.60;;;;;;;26.13;39.45;102854.47;4975182;28;100782;-35
2022/07/17 10:45:34;;;;;;;4.43;1.02;;;;;;;26.23;38.64;102869.22;4975515;28;96681;-35
2022/07/17 10:48:03;;;;;;;3.95;0.73;;;;;;;26.29;38.08;102865.84;4975390;28;96920;-35
2022/07/17 10:50:35;;;;;;;3.17;0.93;;;;;;;26.32;37.87;102859.13;4976433;28;96778;-35
2022/07/17 10:53:03;;;;;;;1.55;0.65;;;;;;;26.55;38.27;102862.44;4975188;28;99998;-35
2022/07/17 10:55:29;;;;;;;5.72;1.30;;;;;;;26.61;38.57;102859.06;4976933;28;96576;-34
2022/07/17 10:57:56;;;;;;;2.55;0.60;;;;;;;26.51;38.58;102863.75;4975425;28;96946;-35
2022/07/17 11:00:21;;;;;;;2.63;0.70;;;;;;;26.51;38.05;102869.31;4974409;28;101181;-35
2022/07/17 11:02:47;;;;;;;1.17;0.77;;;;;;;26.58;37.15;102851.91;4976092;28;97163;-35
2022/07/17 11:05:13;;;;;;;1.30;0.52;;;;;;;26.58;36.94;102859.38;4976180;28;96701;-35
2022/07/17 11:07:53;;;;;;;2.70;0.90;;;;;;;26.46;37.13;102848.41;4975157;28;96863;-35
2022/07/17 11:10:19;;;;;;;4.60;1.30;;;;;;;26.55;37.88;102851.31;4976136;28;98698;-35
2022/07/17 11:12:44;;;;;;;1.83;0.80;;;;;;;26.62;37.56;102856.13;4974693;28;101252;-35
2022/07/17 11:15:10;;;;;;;3.25;0.73;;;;;;;26.62;36.86;102855.25;4976124;28;96659;-35
2022/07/17 11:17:35;;;;;;;2.95;0.90;;;;;;;26.72;37.00;102858.91;4976708;28;96683;-35
2022/07/17 11:20:02;;;;;;;1.70;0.85;;;;;;;26.77;37.52;102848.19;4976061;28;97852;-35
2022/07/17 11:22:28;;;;;;;3.70;1.20;;;;;;;26.95;36.62;102841.81;4974812;28;100860;-34
2022/07/17 11:24:53;;;;;;;3.03;0.88;;;;;;;27.00;36.29;102842.22;4976444;28;96586;-35